Aeroporto :
LOGIN :

Iscrizione | Disclaimer

   EN    FR    IT 

 










Sommario :    VFR   VFR Marginale   IFR   IFR Intensivo   IFR Molto Intensivo
Visibilità : 
Base nubi : 
>= 8 km
>= 3000ft
5 / 8 km
1000 / 3000 ft
1500m / 5 km
500 / 1000 ft
800 / 1500m
200 / 500 ft
< 800m
< 200 ft
Simboli :   Temporali  Nebbia  Neve Forte  Precipitazioni Forti  Vento > 20 kt
SIGMETs :   Varie  Temporali  Ghiacco  Turbolenza  Onda orograficha  Ceneri Vulcaniche






- Altitudine del aeroporto : 49 ft
- Codice IATA : SEN


EGMC - Southend

ULTIMO METAR :
  • 262150Z 32015KT 9999 FEW016 BKN019 11/07 Q1010

METARs OBSOLETI :
  • 262120Z 35017KT 290V350 9999 BKN018 11/08 Q1010
  • 262050Z 32014KT 290V350 9999 BKN019 11/08 Q1010
  • 262020Z 31014G24KT 290V350 9999 FEW012 BKN019 11/08 Q1010
  • 261950Z 32016G27KT 290V350 9999 FEW015 BKN020 11/08 Q1010

TAF TAF EGMC
Valido dal 26 a 21 ore il 27 a 06 ore UTC


261955Z 2621/2706 32015KT 9999 SCT020
TEMPO 2621/2706 32018G30KT
PROB30
TEMPO 2621/2706 8000 -RADZ BKN014



MetMap, La meteo Aeronautica in un colpo d'occhio ! - Copyright ORBIFLY Dicembre 2007 - Disclaimer

ORBIFLY MET'MAP TEAM :

Programmazione e sviluppo : Alexandra Zaïnal
Concezione : Baudouin d'Aumeries
Aiuto per la programmazione : Marc-Olivier Méhu
Supporto tecnico e logistico : Manuel Goepfert
Aiuto per la traduzione : Arnaldo La Scala

Contatto : metmap@orbifly.com




FONTI E CREDITI :

   NOAA